sensor_id;sensor_type;location;lat;lon;timestamp;temperature;humidity
4431;DHT22;2228;48.140;11.488;2023-08-30T09:50:45;19.60;1.00
4431;DHT22;2228;48.140;11.488;2023-08-30T09:53:15;20.10;1.00
4431;DHT22;2228;48.140;11.488;2023-08-30T09:55:44;20.20;1.00
4431;DHT22;2228;48.140;11.488;2023-08-30T09:58:11;20.80;1.00
4431;DHT22;2228;48.140;11.488;2023-08-30T10:00:38;22.00;1.00
4431;DHT22;2228;48.140;11.488;2023-08-30T10:03:05;23.10;1.00
4431;DHT22;2228;48.140;11.488;2023-08-30T10:05:33;24.10;1.00
4431;DHT22;2228;48.140;11.488;2023-08-30T10:08:04;24.30;1.00
4431;DHT22;2228;48.140;11.488;2023-08-30T10:10:34;23.30;1.00
4431;DHT22;2228;48.140;11.488;2023-08-30T10:13:01;21.00;1.00
4431;DHT22;2228;48.140;11.488;2023-08-30T10:15:33;20.70;1.00
4431;DHT22;2228;48.140;11.488;2023-08-30T10:18:04;19.60;1.00
4431;DHT22;2228;48.140;11.488;2023-08-30T10:20:33;18.80;1.00
4431;DHT22;2228;48.140;11.488;2023-08-30T10:23:00;18.40;1.00
4431;DHT22;2228;48.140;11.488;2023-08-30T10:25:30;18.40;1.00
4431;DHT22;2228;48.140;11.488;2023-08-30T10:27:58;20.20;1.00
4431;DHT22;2228;48.140;11.488;2023-08-30T10:30:26;20.80;1.00
4431;DHT22;2228;48.140;11.488;2023-08-30T10:32:53;21.60;1.00
4431;DHT22;2228;48.140;11.488;2023-08-30T10:35:20;22.90;1.00
4431;DHT22;2228;48.140;11.488;2023-08-30T10:37:56;23.20;1.00
4431;DHT22;2228;48.140;11.488;2023-08-30T10:40:23;23.70;1.00
4431;DHT22;2228;48.140;11.488;2023-08-30T10:43:02;23.70;1.00
4431;DHT22;2228;48.140;11.488;2023-08-30T10:45:29;23.90;1.00
4431;DHT22;2228;48.140;11.488;2023-08-30T10:47:57;24.00;1.00
4431;DHT22;2228;48.140;11.488;2023-08-30T10:50:29;23.90;1.00
4431;DHT22;2228;48.140;11.488;2023-08-30T10:52:57;24.50;1.00
4431;DHT22;2228;48.140;11.488;2023-08-30T10:55:24;24.90;1.00
4431;DHT22;2228;48.140;11.488;2023-08-30T10:58:00;24.50;1.00
4431;DHT22;2228;48.140;11.488;2023-08-30T11:00:28;24.00;1.00
4431;DHT22;2228;48.140;11.488;2023-08-30T11:02:56;24.30;1.00
4431;DHT22;2228;48.140;11.488;2023-08-30T11:05:24;24.50;1.00
4431;DHT22;2228;48.140;11.488;2023-08-30T11:07:52;24.90;1.00
4431;DHT22;2228;48.140;11.488;2023-08-30T11:10:20;24.90;1.00
4431;DHT22;2228;48.140;11.488;2023-08-30T11:12:48;25.10;1.00
4431;DHT22;2228;48.140;11.488;2023-08-30T11:15:16;25.10;1.00
4431;DHT22;2228;48.140;11.488;2023-08-30T11:20:12;23.60;1.00
4431;DHT22;2228;48.140;11.488;2023-08-30T11:22:43;21.10;1.00
4431;DHT22;2228;48.140;11.488;2023-08-30T11:25:11;23.10;1.00
4431;DHT22;2228;48.140;11.488;2023-08-30T11:27:39;23.40;1.00
4431;DHT22;2228;48.140;11.488;2023-08-30T11:30:07;23.90;1.00
4431;DHT22;2228;48.140;11.488;2023-08-30T11:32:37;24.40;1.00
4431;DHT22;2228;48.140;11.488;2023-08-30T11:35:05;24.50;1.00
4431;DHT22;2228;48.140;11.488;2023-08-30T11:37:33;24.70;1.00
4431;DHT22;2228;48.140;11.488;2023-08-30T11:40:01;24.90;1.00
4431;DHT22;2228;48.140;11.488;2023-08-30T11:42:30;24.90;1.00
4431;DHT22;2228;48.140;11.488;2023-08-30T11:44:58;24.40;1.00
4431;DHT22;2228;48.140;11.488;2023-08-30T11:47:25;23.60;1.00
4431;DHT22;2228;48.140;11.488;2023-08-30T11:49:55;23.60;1.00
4431;DHT22;2228;48.140;11.488;2023-08-30T11:52:23;24.30;1.00
4431;DHT22;2228;48.140;11.488;2023-08-30T11:54:51;24.20;1.00
4431;DHT22;2228;48.140;11.488;2023-08-30T11:57:18;23.90;1.00
4431;DHT22;2228;48.140;11.488;2023-08-30T12:02:16;23.00;1.00
4431;DHT22;2228;48.140;11.488;2023-08-30T12:04:45;22.20;1.00
4431;DHT22;2228;48.140;11.488;2023-08-30T12:07:22;22.00;1.00
4431;DHT22;2228;48.140;11.488;2023-08-30T12:09:49;19.90;1.00
4431;DHT22;2228;48.140;11.488;2023-08-30T12:12:16;20.90;1.00
4431;DHT22;2228;48.140;11.488;2023-08-30T12:14:43;20.90;1.00
4431;DHT22;2228;48.140;11.488;2023-08-30T12:17:10;21.00;1.00
4431;DHT22;2228;48.140;11.488;2023-08-30T12:19:37;21.00;1.00
4431;DHT22;2228;48.140;11.488;2023-08-30T12:22:06;21.00;1.00
4431;DHT22;2228;48.140;11.488;2023-08-30T12:24:45;21.30;1.00
4431;DHT22;2228;48.140;11.488;2023-08-30T12:27:12;21.50;1.00
4431;DHT22;2228;48.140;11.488;2023-08-30T12:29:39;22.50;1.00
4431;DHT22;2228;48.140;11.488;2023-08-30T12:34:35;24.00;1.00
4431;DHT22;2228;48.140;11.488;2023-08-30T12:37:04;25.00;1.00
4431;DHT22;2228;48.140;11.488;2023-08-30T12:39:31;25.70;1.00
4431;DHT22;2228;48.140;11.488;2023-08-30T12:44:27;25.70;1.00
4431;DHT22;2228;48.140;11.488;2023-08-30T12:46:54;25.70;1.00
4431;DHT22;2228;48.140;11.488;2023-08-30T12:49:21;25.50;1.00
4431;DHT22;2228;48.140;11.488;2023-08-30T12:51:48;26.70;1.00
4431;DHT22;2228;48.140;11.488;2023-08-30T12:54:15;27.40;1.00
4431;DHT22;2228;48.140;11.488;2023-08-30T12:56:42;27.20;1.00
4431;DHT22;2228;48.140;11.488;2023-08-30T13:04:05;25.10;1.00
4431;DHT22;2228;48.140;11.488;2023-08-30T13:06:33;25.20;1.00
4431;DHT22;2228;48.140;11.488;2023-08-30T13:09:00;26.20;1.00
4431;DHT22;2228;48.140;11.488;2023-08-30T13:11:27;26.90;1.00
4431;DHT22;2228;48.140;11.488;2023-08-30T13:13:58;26.60;1.00
4431;DHT22;2228;48.140;11.488;2023-08-30T13:18:56;25.40;1.00
4431;DHT22;2228;48.140;11.488;2023-08-30T13:21:23;24.40;1.00
4431;DHT22;2228;48.140;11.488;2023-08-30T13:26:17;21.50;1.00
4431;DHT22;2228;48.140;11.488;2023-08-30T13:28:44;20.70;1.00
4431;DHT22;2228;48.140;11.488;2023-08-30T13:31:11;19.50;1.00
4431;DHT22;2228;48.140;11.488;2023-08-30T13:33:39;17.60;1.00
4431;DHT22;2228;48.140;11.488;2023-08-30T13:36:06;19.30;1.00
4431;DHT22;2228;48.140;11.488;2023-08-30T13:38:33;19.00;1.00
4431;DHT22;2228;48.140;11.488;2023-08-30T13:41:00;18.80;1.00
4431;DHT22;2228;48.140;11.488;2023-08-30T13:43:29;18.70;1.00
4431;DHT22;2228;48.140;11.488;2023-08-30T13:45:57;18.50;1.00
4431;DHT22;2228;48.140;11.488;2023-08-30T13:48:24;18.30;1.00
4431;DHT22;2228;48.140;11.488;2023-08-30T13:53:19;18.20;1.00
4431;DHT22;2228;48.140;11.488;2023-08-30T13:58:14;18.40;1.00
4431;DHT22;2228;48.140;11.488;2023-08-30T14:00:41;18.40;1.00
4431;DHT22;2228;48.140;11.488;2023-08-30T14:03:08;18.30;1.00
4431;DHT22;2228;48.140;11.488;2023-08-30T14:10:36;18.30;1.00
4431;DHT22;2228;48.140;11.488;2023-08-30T14:13:08;19.30;1.00
4431;DHT22;2228;48.140;11.488;2023-08-30T14:16:14;18.60;1.00
4431;DHT22;2228;48.140;11.488;2023-08-30T14:18:43;19.40;1.00
4431;DHT22;2228;48.140;11.488;2023-08-30T14:21:10;21.20;1.00
4431;DHT22;2228;48.140;11.488;2023-08-30T14:26:06;24.90;1.00
4431;DHT22;2228;48.140;11.488;2023-08-30T14:28:36;25.20;1.00
4431;DHT22;2228;48.140;11.488;2023-08-30T14:31:06;26.10;1.00
4431;DHT22;2228;48.140;11.488;2023-08-30T14:33:33;26.60;1.00
4431;DHT22;2228;48.140;11.488;2023-08-30T14:36:00;26.80;1.00
4431;DHT22;2228;48.140;11.488;2023-08-30T14:38:28;26.30;1.00
4431;DHT22;2228;48.140;11.488;2023-08-30T14:43:24;25.30;1.00
4431;DHT22;2228;48.140;11.488;2023-08-30T14:45:51;25.30;1.00
4431;DHT22;2228;48.140;11.488;2023-08-30T14:48:18;25.00;1.00
4431;DHT22;2228;48.140;11.488;2023-08-30T14:50:50;23.90;1.00
4431;DHT22;2228;48.140;11.488;2023-08-30T14:53:17;23.50;1.00
4431;DHT22;2228;48.140;11.488;2023-08-30T14:55:44;23.20;1.00
4431;DHT22;2228;48.140;11.488;2023-08-30T15:00:40;23.50;1.00
4431;DHT22;2228;48.140;11.488;2023-08-30T15:03:07;23.50;1.00
4431;DHT22;2228;48.140;11.488;2023-08-30T15:05:34;19.20;1.00
4431;DHT22;2228;48.140;11.488;2023-08-30T15:08:01;22.70;1.00
4431;DHT22;2228;48.140;11.488;2023-08-30T15:10:28;22.70;1.00
4431;DHT22;2228;48.140;11.488;2023-08-30T15:12:55;22.90;1.00
4431;DHT22;2228;48.140;11.488;2023-08-30T15:17:50;23.70;1.00
4431;DHT22;2228;48.140;11.488;2023-08-30T15:20:17;24.10;1.00
4431;DHT22;2228;48.140;11.488;2023-08-30T15:22:44;24.40;1.00
4431;DHT22;2228;48.140;11.488;2023-08-30T15:25:11;24.70;1.00
4431;DHT22;2228;48.140;11.488;2023-08-30T15:27:39;24.70;1.00
4431;DHT22;2228;48.140;11.488;2023-08-30T15:40:15;26.50;1.00
4431;DHT22;2228;48.140;11.488;2023-08-30T15:42:42;25.40;1.00
4431;DHT22;2228;48.140;11.488;2023-08-30T15:45:09;25.70;1.00
4431;DHT22;2228;48.140;11.488;2023-08-30T15:50:05;23.90;1.00
4431;DHT22;2228;48.140;11.488;2023-08-30T15:52:32;22.90;1.00
4431;DHT22;2228;48.140;11.488;2023-08-30T15:54:59;22.40;1.00
4431;DHT22;2228;48.140;11.488;2023-08-30T15:57:27;21.60;1.00
4431;DHT22;2228;48.140;11.488;2023-08-30T15:59:54;23.30;1.00
4431;DHT22;2228;48.140;11.488;2023-08-30T16:02:21;20.40;1.00
4431;DHT22;2228;48.140;11.488;2023-08-30T16:04:48;20.30;1.00
4431;DHT22;2228;48.140;11.488;2023-08-30T16:12:13;19.70;1.00
4431;DHT22;2228;48.140;11.488;2023-08-30T16:14:40;19.70;1.00
4431;DHT22;2228;48.140;11.488;2023-08-30T16:17:07;19.30;1.00
4431;DHT22;2228;48.140;11.488;2023-08-30T16:19:34;19.40;1.00
4431;DHT22;2228;48.140;11.488;2023-08-30T16:22:02;19.20;1.00
4431;DHT22;2228;48.140;11.488;2023-08-30T16:24:31;19.30;1.00
4431;DHT22;2228;48.140;11.488;2023-08-30T16:26:58;19.40;1.00
4431;DHT22;2228;48.140;11.488;2023-08-30T16:29:27;19.20;1.00
4431;DHT22;2228;48.140;11.488;2023-08-30T16:31:54;19.20;1.00
4431;DHT22;2228;48.140;11.488;2023-08-30T16:34:21;19.50;1.00
4431;DHT22;2228;48.140;11.488;2023-08-30T16:36:48;19.60;1.00
4431;DHT22;2228;48.140;11.488;2023-08-30T16:46:40;19.70;1.00
4431;DHT22;2228;48.140;11.488;2023-08-30T16:54:03;20.10;1.00
4431;DHT22;2228;48.140;11.488;2023-08-30T17:01:27;20.80;1.00
4431;DHT22;2228;48.140;11.488;2023-08-30T17:03:54;21.40;1.00
4431;DHT22;2228;48.140;11.488;2023-08-30T17:06:21;22.00;1.00
4431;DHT22;2228;48.140;11.488;2023-08-30T17:08:48;22.40;1.00
4431;DHT22;2228;48.140;11.488;2023-08-30T17:11:15;22.40;1.00
4431;DHT22;2228;48.140;11.488;2023-08-30T17:18:38;22.70;1.00
4431;DHT22;2228;48.140;11.488;2023-08-30T17:21:06;22.20;1.00
4431;DHT22;2228;48.140;11.488;2023-08-30T17:23:38;22.20;1.00
4431;DHT22;2228;48.140;11.488;2023-08-30T17:26:05;21.70;1.00
4431;DHT22;2228;48.140;11.488;2023-08-30T17:28:33;20.90;1.00
4431;DHT22;2228;48.140;11.488;2023-08-30T17:31:01;20.70;1.00
4431;DHT22;2228;48.140;11.488;2023-08-30T17:35:59;19.90;1.00
4431;DHT22;2228;48.140;11.488;2023-08-30T17:38:28;19.50;1.00
4431;DHT22;2228;48.140;11.488;2023-08-30T17:40:55;19.10;1.00
4431;DHT22;2228;48.140;11.488;2023-08-30T17:50:46;18.20;1.00
4431;DHT22;2228;48.140;11.488;2023-08-30T17:55:42;18.00;1.00
4431;DHT22;2228;48.140;11.488;2023-08-30T18:10:30;16.60;1.00
4431;DHT22;2228;48.140;11.488;2023-08-30T18:12:57;16.40;1.00
4431;DHT22;2228;48.140;11.488;2023-08-30T18:15:24;16.20;1.00
4431;DHT22;2228;48.140;11.488;2023-08-30T18:17:51;16.10;1.00
4431;DHT22;2228;48.140;11.488;2023-08-30T18:20:18;15.90;1.00
4431;DHT22;2228;48.140;11.488;2023-08-30T18:22:51;15.80;13.00
4431;DHT22;2228;48.140;11.488;2023-08-30T18:27:47;15.60;31.90
4431;DHT22;2228;48.140;11.488;2023-08-30T18:35:11;15.30;99.90
4431;DHT22;2228;48.140;11.488;2023-08-30T18:37:38;15.20;99.90
4431;DHT22;2228;48.140;11.488;2023-08-30T18:45:03;14.80;99.90
4431;DHT22;2228;48.140;11.488;2023-08-30T18:47:31;14.80;99.90
4431;DHT22;2228;48.140;11.488;2023-08-30T18:49:58;14.70;99.90
4431;DHT22;2228;48.140;11.488;2023-08-30T21:44:51;14.80;99.90
4431;DHT22;2228;48.140;11.488;2023-08-30T21:47:18;14.80;99.90
4431;DHT22;2228;48.140;11.488;2023-08-30T21:49:45;14.80;99.90
4431;DHT22;2228;48.140;11.488;2023-08-30T22:10:06;14.80;99.90
4431;DHT22;2228;48.140;11.488;2023-08-30T22:20:06;14.90;99.90
4431;DHT22;2228;48.140;11.488;2023-08-30T22:22:35;14.90;99.90
4431;DHT22;2228;48.140;11.488;2023-08-30T22:32:28;14.60;99.90
4431;DHT22;2228;48.140;11.488;2023-08-30T22:37:24;14.60;99.90
4431;DHT22;2228;48.140;11.488;2023-08-30T22:42:19;14.60;99.90
4431;DHT22;2228;48.140;11.488;2023-08-30T22:49:43;14.50;99.90
4431;DHT22;2228;48.140;11.488;2023-08-30T22:54:37;14.60;99.90
4431;DHT22;2228;48.140;11.488;2023-08-30T23:04:32;14.30;99.90
4431;DHT22;2228;48.140;11.488;2023-08-30T23:16:51;14.20;99.90
4431;DHT22;2228;48.140;11.488;2023-08-30T23:24:16;14.20;99.90
4431;DHT22;2228;48.140;11.488;2023-08-30T23:26:43;14.20;99.90
4431;DHT22;2228;48.140;11.488;2023-08-30T23:31:40;14.10;99.90
4431;DHT22;2228;48.140;11.488;2023-08-30T23:34:07;14.10;99.90
4431;DHT22;2228;48.140;11.488;2023-08-30T23:36:34;14.10;99.90
4431;DHT22;2228;48.140;11.488;2023-08-30T23:39:03;14.10;99.90
4431;DHT22;2228;48.140;11.488;2023-08-30T23:43:59;13.90;99.90
4431;DHT22;2228;48.140;11.488;2023-08-30T23:53:50;13.70;99.90
